sensor_id;sensor_type;location;lat;lon;timestamp;temperature;humidity
37560;DHT22;23398;50.928;7.084;2024-01-07T00:00:01;7.50;82.80
37560;DHT22;23398;50.928;7.084;2024-01-07T00:02:26;7.60;82.70
37560;DHT22;23398;50.928;7.084;2024-01-07T00:04:52;7.60;82.70
37560;DHT22;23398;50.928;7.084;2024-01-07T00:07:17;7.60;82.70
37560;DHT22;23398;50.928;7.084;2024-01-07T00:09:43;7.50;82.60
37560;DHT22;23398;50.928;7.084;2024-01-07T00:12:09;7.60;82.70
37560;DHT22;23398;50.928;7.084;2024-01-07T00:14:34;7.60;82.70
37560;DHT22;23398;50.928;7.084;2024-01-07T00:17:00;7.60;82.80
37560;DHT22;23398;50.928;7.084;2024-01-07T00:19:25;7.60;82.80
37560;DHT22;23398;50.928;7.084;2024-01-07T00:21:51;7.60;82.70
37560;DHT22;23398;50.928;7.084;2024-01-07T00:24:17;7.50;82.70
37560;DHT22;23398;50.928;7.084;2024-01-07T00:26:42;7.60;82.80
37560;DHT22;23398;50.928;7.084;2024-01-07T00:29:08;7.60;82.90
37560;DHT22;23398;50.928;7.084;2024-01-07T00:31:33;7.60;82.90
37560;DHT22;23398;50.928;7.084;2024-01-07T00:33:59;7.60;82.90
37560;DHT22;23398;50.928;7.084;2024-01-07T00:36:24;7.60;83.00
37560;DHT22;23398;50.928;7.084;2024-01-07T00:38:50;7.60;82.90
37560;DHT22;23398;50.928;7.084;2024-01-07T00:41:16;7.60;82.90
37560;DHT22;23398;50.928;7.084;2024-01-07T00:43:41;7.60;83.10
37560;DHT22;23398;50.928;7.084;2024-01-07T00:46:07;7.60;83.20
37560;DHT22;23398;50.928;7.084;2024-01-07T00:48:32;7.60;83.10
37560;DHT22;23398;50.928;7.084;2024-01-07T00:50:58;7.60;82.90
37560;DHT22;23398;50.928;7.084;2024-01-07T00:53:23;7.60;82.70
37560;DHT22;23398;50.928;7.084;2024-01-07T00:55:50;7.60;82.60
37560;DHT22;23398;50.928;7.084;2024-01-07T00:58:16;7.60;82.60
37560;DHT22;23398;50.928;7.084;2024-01-07T01:00:41;7.60;82.50
37560;DHT22;23398;50.928;7.084;2024-01-07T01:03:07;7.60;82.50
37560;DHT22;23398;50.928;7.084;2024-01-07T01:05:32;7.60;82.30
37560;DHT22;23398;50.928;7.084;2024-01-07T01:07:58;7.60;82.10
37560;DHT22;23398;50.928;7.084;2024-01-07T01:10:24;7.60;82.20
37560;DHT22;23398;50.928;7.084;2024-01-07T01:12:49;7.60;82.20
37560;DHT22;23398;50.928;7.084;2024-01-07T01:15:17;7.60;82.40
37560;DHT22;23398;50.928;7.084;2024-01-07T01:17:43;7.60;82.50
37560;DHT22;23398;50.928;7.084;2024-01-07T01:20:09;7.60;82.40
37560;DHT22;23398;50.928;7.084;2024-01-07T01:22:34;7.60;82.30
37560;DHT22;23398;50.928;7.084;2024-01-07T01:25:00;7.60;82.40
37560;DHT22;23398;50.928;7.084;2024-01-07T01:27:26;7.60;82.50
37560;DHT22;23398;50.928;7.084;2024-01-07T01:29:52;7.60;82.50
37560;DHT22;23398;50.928;7.084;2024-01-07T01:32:17;7.60;82.50
37560;DHT22;23398;50.928;7.084;2024-01-07T01:34:43;7.60;82.50
37560;DHT22;23398;50.928;7.084;2024-01-07T01:37:09;7.60;82.50
37560;DHT22;23398;50.928;7.084;2024-01-07T01:39:35;7.60;82.50
37560;DHT22;23398;50.928;7.084;2024-01-07T01:42:00;7.60;82.40
37560;DHT22;23398;50.928;7.084;2024-01-07T01:44:26;7.60;82.30
37560;DHT22;23398;50.928;7.084;2024-01-07T01:46:55;7.60;82.40
37560;DHT22;23398;50.928;7.084;2024-01-07T01:49:22;7.60;82.50
37560;DHT22;23398;50.928;7.084;2024-01-07T01:51:48;7.70;82.70
37560;DHT22;23398;50.928;7.084;2024-01-07T01:54:15;7.60;82.70
37560;DHT22;23398;50.928;7.084;2024-01-07T01:56:40;7.70;82.50
37560;DHT22;23398;50.928;7.084;2024-01-07T01:59:06;7.70;82.30
37560;DHT22;23398;50.928;7.084;2024-01-07T02:01:32;7.70;82.10
37560;DHT22;23398;50.928;7.084;2024-01-07T02:03:57;7.70;82.00
37560;DHT22;23398;50.928;7.084;2024-01-07T02:06:23;7.70;82.00
37560;DHT22;23398;50.928;7.084;2024-01-07T02:08:49;7.70;81.80
37560;DHT22;23398;50.928;7.084;2024-01-07T02:11:19;7.70;81.80
37560;DHT22;23398;50.928;7.084;2024-01-07T02:13:45;7.70;81.50
37560;DHT22;23398;50.928;7.084;2024-01-07T02:16:11;7.70;81.20
37560;DHT22;23398;50.928;7.084;2024-01-07T02:18:40;7.70;81.00
37560;DHT22;23398;50.928;7.084;2024-01-07T02:21:07;7.70;80.70
37560;DHT22;23398;50.928;7.084;2024-01-07T02:23:33;7.70;80.50
37560;DHT22;23398;50.928;7.084;2024-01-07T02:25:58;7.70;80.30
37560;DHT22;23398;50.928;7.084;2024-01-07T02:28:24;7.70;80.10
37560;DHT22;23398;50.928;7.084;2024-01-07T02:30:49;7.70;80.00
37560;DHT22;23398;50.928;7.084;2024-01-07T02:33:15;7.70;80.00
37560;DHT22;23398;50.928;7.084;2024-01-07T02:35:40;7.70;80.10
37560;DHT22;23398;50.928;7.084;2024-01-07T02:38:06;7.70;81.00
37560;DHT22;23398;50.928;7.084;2024-01-07T02:40:31;7.70;80.10
37560;DHT22;23398;50.928;7.084;2024-01-07T02:42:57;7.70;80.10
37560;DHT22;23398;50.928;7.084;2024-01-07T02:45:23;7.70;80.20
37560;DHT22;23398;50.928;7.084;2024-01-07T02:47:49;7.70;80.20
37560;DHT22;23398;50.928;7.084;2024-01-07T02:50:14;7.80;80.30
37560;DHT22;23398;50.928;7.084;2024-01-07T02:52:41;7.70;80.10
37560;DHT22;23398;50.928;7.084;2024-01-07T02:55:07;7.70;80.20
37560;DHT22;23398;50.928;7.084;2024-01-07T02:57:33;7.70;80.30
37560;DHT22;23398;50.928;7.084;2024-01-07T02:59:59;6.80;79.50
37560;DHT22;23398;50.928;7.084;2024-01-07T03:02:24;7.70;80.20
37560;DHT22;23398;50.928;7.084;2024-01-07T03:04:50;7.70;80.10
37560;DHT22;23398;50.928;7.084;2024-01-07T03:07:16;7.70;80.00
37560;DHT22;23398;50.928;7.084;2024-01-07T03:09:41;7.70;80.00
37560;DHT22;23398;50.928;7.084;2024-01-07T03:12:07;7.70;80.00
37560;DHT22;23398;50.928;7.084;2024-01-07T03:14:32;7.70;80.10
37560;DHT22;23398;50.928;7.084;2024-01-07T03:16:58;7.70;80.10
37560;DHT22;23398;50.928;7.084;2024-01-07T03:19:23;7.70;80.00
37560;DHT22;23398;50.928;7.084;2024-01-07T03:21:49;7.60;80.00
37560;DHT22;23398;50.928;7.084;2024-01-07T03:24:14;7.70;80.10
37560;DHT22;23398;50.928;7.084;2024-01-07T03:26:40;7.60;80.00
37560;DHT22;23398;50.928;7.084;2024-01-07T03:29:05;7.60;79.80
37560;DHT22;23398;50.928;7.084;2024-01-07T03:31:31;7.60;79.80
37560;DHT22;23398;50.928;7.084;2024-01-07T03:33:57;7.60;80.00
37560;DHT22;23398;50.928;7.084;2024-01-07T03:36:22;7.60;80.20
37560;DHT22;23398;50.928;7.084;2024-01-07T03:38:48;7.60;80.20
37560;DHT22;23398;50.928;7.084;2024-01-07T03:41:17;7.60;80.10
37560;DHT22;23398;50.928;7.084;2024-01-07T03:43:44;7.70;80.00
37560;DHT22;23398;50.928;7.084;2024-01-07T03:46:09;7.60;79.80
37560;DHT22;23398;50.928;7.084;2024-01-07T03:48:35;7.70;79.80
37560;DHT22;23398;50.928;7.084;2024-01-07T03:51:01;7.60;79.50
37560;DHT22;23398;50.928;7.084;2024-01-07T03:53:26;7.70;79.40
37560;DHT22;23398;50.928;7.084;2024-01-07T03:55:52;7.60;79.10
37560;DHT22;23398;50.928;7.084;2024-01-07T03:58:17;7.60;79.00
37560;DHT22;23398;50.928;7.084;2024-01-07T04:00:43;7.60;78.90
37560;DHT22;23398;50.928;7.084;2024-01-07T04:03:08;7.60;78.70
37560;DHT22;23398;50.928;7.084;2024-01-07T04:05:35;7.60;78.60
37560;DHT22;23398;50.928;7.084;2024-01-07T04:08:01;7.60;78.70
37560;DHT22;23398;50.928;7.084;2024-01-07T04:10:27;7.50;78.80
37560;DHT22;23398;50.928;7.084;2024-01-07T04:12:52;7.50;78.90
37560;DHT22;23398;50.928;7.084;2024-01-07T04:15:18;7.50;79.10
37560;DHT22;23398;50.928;7.084;2024-01-07T04:17:43;7.50;79.10
37560;DHT22;23398;50.928;7.084;2024-01-07T04:20:12;7.50;79.00
37560;DHT22;23398;50.928;7.084;2024-01-07T04:22:38;7.50;78.80
37560;DHT22;23398;50.928;7.084;2024-01-07T04:25:04;7.50;78.60
37560;DHT22;23398;50.928;7.084;2024-01-07T04:27:34;7.50;78.40
37560;DHT22;23398;50.928;7.084;2024-01-07T04:30:00;7.50;78.30
37560;DHT22;23398;50.928;7.084;2024-01-07T04:32:26;7.50;78.40
37560;DHT22;23398;50.928;7.084;2024-01-07T04:34:52;7.40;79.30
37560;DHT22;23398;50.928;7.084;2024-01-07T04:37:17;7.40;78.50
37560;DHT22;23398;50.928;7.084;2024-01-07T04:39:43;7.30;78.40
37560;DHT22;23398;50.928;7.084;2024-01-07T04:42:08;7.30;78.50
37560;DHT22;23398;50.928;7.084;2024-01-07T04:44:34;7.30;78.70
37560;DHT22;23398;50.928;7.084;2024-01-07T04:47:00;7.20;78.80
37560;DHT22;23398;50.928;7.084;2024-01-07T04:49:25;7.20;78.90
37560;DHT22;23398;50.928;7.084;2024-01-07T04:51:51;7.20;79.10
37560;DHT22;23398;50.928;7.084;2024-01-07T04:54:17;7.20;79.20
37560;DHT22;23398;50.928;7.084;2024-01-07T04:56:43;7.20;79.20
37560;DHT22;23398;50.928;7.084;2024-01-07T04:59:09;7.10;79.30
37560;DHT22;23398;50.928;7.084;2024-01-07T05:01:35;7.10;79.40
37560;DHT22;23398;50.928;7.084;2024-01-07T05:04:02;7.10;79.40
37560;DHT22;23398;50.928;7.084;2024-01-07T05:06:27;7.10;79.50
37560;DHT22;23398;50.928;7.084;2024-01-07T05:08:53;7.10;79.50
37560;DHT22;23398;50.928;7.084;2024-01-07T05:11:18;7.10;79.70
37560;DHT22;23398;50.928;7.084;2024-01-07T05:13:44;7.00;79.70
37560;DHT22;23398;50.928;7.084;2024-01-07T05:16:18;7.00;79.90
37560;DHT22;23398;50.928;7.084;2024-01-07T05:18:44;7.00;80.40
37560;DHT22;23398;50.928;7.084;2024-01-07T05:21:14;7.00;80.50
37560;DHT22;23398;50.928;7.084;2024-01-07T05:23:40;7.00;80.60
37560;DHT22;23398;50.928;7.084;2024-01-07T05:26:05;7.00;80.80
37560;DHT22;23398;50.928;7.084;2024-01-07T05:28:31;7.00;80.80
37560;DHT22;23398;50.928;7.084;2024-01-07T05:30:57;7.00;81.00
37560;DHT22;23398;50.928;7.084;2024-01-07T05:33:22;7.00;81.20
37560;DHT22;23398;50.928;7.084;2024-01-07T05:35:48;7.00;81.10
37560;DHT22;23398;50.928;7.084;2024-01-07T05:38:14;7.00;81.10
37560;DHT22;23398;50.928;7.084;2024-01-07T05:40:39;7.00;81.00
37560;DHT22;23398;50.928;7.084;2024-01-07T05:43:05;7.00;80.90
37560;DHT22;23398;50.928;7.084;2024-01-07T05:45:30;7.00;80.70
37560;DHT22;23398;50.928;7.084;2024-01-07T05:47:56;7.00;80.60
37560;DHT22;23398;50.928;7.084;2024-01-07T05:50:21;7.00;80.70
37560;DHT22;23398;50.928;7.084;2024-01-07T05:52:47;7.00;80.40
37560;DHT22;23398;50.928;7.084;2024-01-07T05:55:12;7.00;80.40
37560;DHT22;23398;50.928;7.084;2024-01-07T05:57:38;7.00;80.40
37560;DHT22;23398;50.928;7.084;2024-01-07T06:00:04;7.00;80.40
37560;DHT22;23398;50.928;7.084;2024-01-07T06:02:29;7.00;80.30
37560;DHT22;23398;50.928;7.084;2024-01-07T06:04:55;7.00;80.20
37560;DHT22;23398;50.928;7.084;2024-01-07T06:07:21;7.00;80.00
37560;DHT22;23398;50.928;7.084;2024-01-07T06:09:46;7.00;79.80
37560;DHT22;23398;50.928;7.084;2024-01-07T06:12:12;7.00;79.40
37560;DHT22;23398;50.928;7.084;2024-01-07T06:14:38;7.00;79.40
37560;DHT22;23398;50.928;7.084;2024-01-07T06:17:03;7.00;79.40
37560;DHT22;23398;50.928;7.084;2024-01-07T06:19:29;7.00;79.20
37560;DHT22;23398;50.928;7.084;2024-01-07T06:21:55;7.00;79.20
37560;DHT22;23398;50.928;7.084;2024-01-07T06:24:21;7.00;79.10
37560;DHT22;23398;50.928;7.084;2024-01-07T06:26:46;7.00;78.80
37560;DHT22;23398;50.928;7.084;2024-01-07T06:29:12;7.00;78.50
37560;DHT22;23398;50.928;7.084;2024-01-07T06:31:43;7.00;78.30
37560;DHT22;23398;50.928;7.084;2024-01-07T06:34:10;7.00;78.20
37560;DHT22;23398;50.928;7.084;2024-01-07T06:36:39;6.90;77.80
37560;DHT22;23398;50.928;7.084;2024-01-07T06:39:04;6.90;77.80
37560;DHT22;23398;50.928;7.084;2024-01-07T06:41:30;6.90;77.80
37560;DHT22;23398;50.928;7.084;2024-01-07T06:43:56;6.90;77.90
37560;DHT22;23398;50.928;7.084;2024-01-07T06:46:22;6.90;78.00
37560;DHT22;23398;50.928;7.084;2024-01-07T06:48:48;6.80;78.00
37560;DHT22;23398;50.928;7.084;2024-01-07T06:51:14;6.80;78.00
37560;DHT22;23398;50.928;7.084;2024-01-07T06:53:40;6.80;78.10
37560;DHT22;23398;50.928;7.084;2024-01-07T06:56:06;6.80;78.20
37560;DHT22;23398;50.928;7.084;2024-01-07T06:58:32;6.80;78.20
37560;DHT22;23398;50.928;7.084;2024-01-07T07:00:58;6.80;78.10
37560;DHT22;23398;50.928;7.084;2024-01-07T07:03:23;6.80;78.10
37560;DHT22;23398;50.928;7.084;2024-01-07T07:05:49;6.80;78.10
37560;DHT22;23398;50.928;7.084;2024-01-07T07:08:15;6.80;78.00
37560;DHT22;23398;50.928;7.084;2024-01-07T07:10:40;6.80;78.70
37560;DHT22;23398;50.928;7.084;2024-01-07T07:13:06;6.80;78.00
37560;DHT22;23398;50.928;7.084;2024-01-07T07:15:31;6.80;77.70
37560;DHT22;23398;50.928;7.084;2024-01-07T07:17:57;6.80;77.60
37560;DHT22;23398;50.928;7.084;2024-01-07T07:20:22;6.80;77.50
37560;DHT22;23398;50.928;7.084;2024-01-07T07:22:48;6.80;77.40
37560;DHT22;23398;50.928;7.084;2024-01-07T07:25:13;6.80;77.40
37560;DHT22;23398;50.928;7.084;2024-01-07T07:27:39;6.80;76.70
37560;DHT22;23398;50.928;7.084;2024-01-07T07:30:05;6.80;77.50
37560;DHT22;23398;50.928;7.084;2024-01-07T07:32:31;6.70;77.30
37560;DHT22;23398;50.928;7.084;2024-01-07T07:34:57;6.70;77.50
37560;DHT22;23398;50.928;7.084;2024-01-07T07:37:23;6.70;77.70
37560;DHT22;23398;50.928;7.084;2024-01-07T07:39:49;6.70;77.80
37560;DHT22;23398;50.928;7.084;2024-01-07T07:42:15;6.70;77.80
37560;DHT22;23398;50.928;7.084;2024-01-07T07:44:41;6.70;77.70
37560;DHT22;23398;50.928;7.084;2024-01-07T07:47:07;6.60;77.40
37560;DHT22;23398;50.928;7.084;2024-01-07T07:49:33;6.70;77.40
37560;DHT22;23398;50.928;7.084;2024-01-07T07:51:59;6.70;77.30
37560;DHT22;23398;50.928;7.084;2024-01-07T07:54:25;6.70;77.20
37560;DHT22;23398;50.928;7.084;2024-01-07T07:56:51;6.70;77.20
37560;DHT22;23398;50.928;7.084;2024-01-07T07:59:17;6.70;77.10
37560;DHT22;23398;50.928;7.084;2024-01-07T08:01:42;6.70;77.10
37560;DHT22;23398;50.928;7.084;2024-01-07T08:04:08;6.70;77.30
37560;DHT22;23398;50.928;7.084;2024-01-07T08:06:35;6.70;77.30
37560;DHT22;23398;50.928;7.084;2024-01-07T08:09:01;6.70;77.30
37560;DHT22;23398;50.928;7.084;2024-01-07T08:11:26;6.70;77.20
37560;DHT22;23398;50.928;7.084;2024-01-07T08:13:52;6.70;77.10
37560;DHT22;23398;50.928;7.084;2024-01-07T08:16:17;6.70;77.00
37560;DHT22;23398;50.928;7.084;2024-01-07T08:18:44;6.70;77.20
37560;DHT22;23398;50.928;7.084;2024-01-07T08:21:09;6.70;77.00
37560;DHT22;23398;50.928;7.084;2024-01-07T08:23:35;6.70;77.10
37560;DHT22;23398;50.928;7.084;2024-01-07T08:26:02;6.70;77.00
37560;DHT22;23398;50.928;7.084;2024-01-07T08:28:28;6.70;77.00
37560;DHT22;23398;50.928;7.084;2024-01-07T08:30:53;6.70;77.10
37560;DHT22;23398;50.928;7.084;2024-01-07T08:33:19;6.70;77.40
37560;DHT22;23398;50.928;7.084;2024-01-07T08:35:44;6.70;77.60
37560;DHT22;23398;50.928;7.084;2024-01-07T08:38:10;6.60;77.60
37560;DHT22;23398;50.928;7.084;2024-01-07T08:40:36;6.60;77.70
37560;DHT22;23398;50.928;7.084;2024-01-07T08:43:02;6.70;78.30
37560;DHT22;23398;50.928;7.084;2024-01-07T08:45:28;6.70;78.50
37560;DHT22;23398;50.928;7.084;2024-01-07T08:47:54;6.70;78.40
37560;DHT22;23398;50.928;7.084;2024-01-07T08:50:20;6.70;78.10
37560;DHT22;23398;50.928;7.084;2024-01-07T08:52:46;6.80;77.90
37560;DHT22;23398;50.928;7.084;2024-01-07T08:55:12;6.80;77.60
37560;DHT22;23398;50.928;7.084;2024-01-07T08:57:38;6.80;77.50
37560;DHT22;23398;50.928;7.084;2024-01-07T09:00:05;6.80;77.40
37560;DHT22;23398;50.928;7.084;2024-01-07T09:02:33;6.80;77.20
37560;DHT22;23398;50.928;7.084;2024-01-07T09:04:58;6.80;77.00
37560;DHT22;23398;50.928;7.084;2024-01-07T09:07:24;6.80;77.00
37560;DHT22;23398;50.928;7.084;2024-01-07T09:09:50;6.80;76.70
37560;DHT22;23398;50.928;7.084;2024-01-07T09:12:15;6.80;76.60
37560;DHT22;23398;50.928;7.084;2024-01-07T09:14:41;6.80;76.60
37560;DHT22;23398;50.928;7.084;2024-01-07T09:17:07;6.80;76.40
37560;DHT22;23398;50.928;7.084;2024-01-07T09:19:32;6.80;76.30
37560;DHT22;23398;50.928;7.084;2024-01-07T09:21:58;6.80;76.20
37560;DHT22;23398;50.928;7.084;2024-01-07T09:24:23;6.80;76.20
37560;DHT22;23398;50.928;7.084;2024-01-07T09:26:49;6.80;76.20
37560;DHT22;23398;50.928;7.084;2024-01-07T09:29:14;6.80;76.10
37560;DHT22;23398;50.928;7.084;2024-01-07T09:31:40;6.80;75.90
37560;DHT22;23398;50.928;7.084;2024-01-07T09:34:06;6.80;75.70
37560;DHT22;23398;50.928;7.084;2024-01-07T09:36:32;6.70;75.40
37560;DHT22;23398;50.928;7.084;2024-01-07T09:38:58;6.70;75.30
37560;DHT22;23398;50.928;7.084;2024-01-07T09:41:23;6.70;75.40
37560;DHT22;23398;50.928;7.084;2024-01-07T09:43:51;6.70;75.50
37560;DHT22;23398;50.928;7.084;2024-01-07T09:46:17;6.70;75.40
37560;DHT22;23398;50.928;7.084;2024-01-07T09:48:42;6.70;75.40
37560;DHT22;23398;50.928;7.084;2024-01-07T09:51:09;6.70;75.40
37560;DHT22;23398;50.928;7.084;2024-01-07T09:53:38;6.80;75.70
37560;DHT22;23398;50.928;7.084;2024-01-07T09:56:25;6.70;75.60
37560;DHT22;23398;50.928;7.084;2024-01-07T09:58:51;6.80;75.40
37560;DHT22;23398;50.928;7.084;2024-01-07T10:01:20;6.80;75.50
37560;DHT22;23398;50.928;7.084;2024-01-07T10:03:45;6.80;75.40
37560;DHT22;23398;50.928;7.084;2024-01-07T10:06:12;6.90;75.30
37560;DHT22;23398;50.928;7.084;2024-01-07T10:08:38;6.90;75.00
37560;DHT22;23398;50.928;7.084;2024-01-07T10:11:04;6.90;74.70
37560;DHT22;23398;50.928;7.084;2024-01-07T10:13:30;6.90;74.50
37560;DHT22;23398;50.928;7.084;2024-01-07T10:15:56;6.90;74.30
37560;DHT22;23398;50.928;7.084;2024-01-07T10:18:22;7.00;74.30
37560;DHT22;23398;50.928;7.084;2024-01-07T10:20:48;7.00;74.40
37560;DHT22;23398;50.928;7.084;2024-01-07T10:23:19;7.00;74.30
37560;DHT22;23398;50.928;7.084;2024-01-07T10:25:45;7.00;73.90
37560;DHT22;23398;50.928;7.084;2024-01-07T10:28:11;7.00;74.70
37560;DHT22;23398;50.928;7.084;2024-01-07T10:30:38;7.00;73.80
37560;DHT22;23398;50.928;7.084;2024-01-07T10:33:07;7.00;73.70
37560;DHT22;23398;50.928;7.084;2024-01-07T10:35:34;7.00;73.80
37560;DHT22;23398;50.928;7.084;2024-01-07T10:38:03;7.00;73.70
37560;DHT22;23398;50.928;7.084;2024-01-07T10:40:30;7.00;73.40
37560;DHT22;23398;50.928;7.084;2024-01-07T10:42:57;7.00;73.40
37560;DHT22;23398;50.928;7.084;2024-01-07T10:45:23;7.00;73.50
37560;DHT22;23398;50.928;7.084;2024-01-07T10:47:49;7.00;73.50
37560;DHT22;23398;50.928;7.084;2024-01-07T10:50:19;7.10;73.60
37560;DHT22;23398;50.928;7.084;2024-01-07T10:52:57;7.10;73.60
37560;DHT22;23398;50.928;7.084;2024-01-07T10:55:25;7.10;73.10
37560;DHT22;23398;50.928;7.084;2024-01-07T10:57:53;7.10;73.30
37560;DHT22;23398;50.928;7.084;2024-01-07T11:00:21;7.20;73.20
37560;DHT22;23398;50.928;7.084;2024-01-07T11:05:56;7.20;72.70
37560;DHT22;23398;50.928;7.084;2024-01-07T11:08:38;7.20;73.40
37560;DHT22;23398;50.928;7.084;2024-01-07T11:11:13;7.20;72.10
37560;DHT22;23398;50.928;7.084;2024-01-07T11:13:40;7.20;72.10
37560;DHT22;23398;50.928;7.084;2024-01-07T11:16:07;7.10;71.90
37560;DHT22;23398;50.928;7.084;2024-01-07T11:19:05;7.10;72.10
37560;DHT22;23398;50.928;7.084;2024-01-07T11:21:31;7.10;72.10
37560;DHT22;23398;50.928;7.084;2024-01-07T11:23:56;7.10;72.40
37560;DHT22;23398;50.928;7.084;2024-01-07T11:26:22;7.10;72.30
37560;DHT22;23398;50.928;7.084;2024-01-07T11:28:54;7.10;72.40
37560;DHT22;23398;50.928;7.084;2024-01-07T11:34:06;7.10;72.00
37560;DHT22;23398;50.928;7.084;2024-01-07T11:36:35;7.10;71.90
37560;DHT22;23398;50.928;7.084;2024-01-07T11:39:01;7.10;71.50
37560;DHT22;23398;50.928;7.084;2024-01-07T11:41:29;7.10;71.50
37560;DHT22;23398;50.928;7.084;2024-01-07T11:43:58;7.10;71.40
37560;DHT22;23398;50.928;7.084;2024-01-07T11:46:25;7.00;71.20
37560;DHT22;23398;50.928;7.084;2024-01-07T11:48:56;7.00;71.30
37560;DHT22;23398;50.928;7.084;2024-01-07T11:51:26;7.00;71.50
37560;DHT22;23398;50.928;7.084;2024-01-07T11:53:52;7.00;71.60
37560;DHT22;23398;50.928;7.084;2024-01-07T11:56:18;7.00;71.60
37560;DHT22;23398;50.928;7.084;2024-01-07T11:58:44;7.00;71.50
37560;DHT22;23398;50.928;7.084;2024-01-07T12:01:10;6.90;71.40
37560;DHT22;23398;50.928;7.084;2024-01-07T12:03:35;6.90;71.40
37560;DHT22;23398;50.928;7.084;2024-01-07T12:06:01;7.00;71.60
37560;DHT22;23398;50.928;7.084;2024-01-07T12:08:27;6.90;71.60
37560;DHT22;23398;50.928;7.084;2024-01-07T12:10:54;7.00;71.70
37560;DHT22;23398;50.928;7.084;2024-01-07T12:13:20;7.00;71.60
37560;DHT22;23398;50.928;7.084;2024-01-07T12:15:46;7.00;71.50
37560;DHT22;23398;50.928;7.084;2024-01-07T12:18:12;7.00;71.40
37560;DHT22;23398;50.928;7.084;2024-01-07T12:20:37;7.00;71.30
37560;DHT22;23398;50.928;7.084;2024-01-07T12:23:09;7.00;71.10
37560;DHT22;23398;50.928;7.084;2024-01-07T12:25:36;7.00;70.90
37560;DHT22;23398;50.928;7.084;2024-01-07T12:28:04;7.00;71.10
37560;DHT22;23398;50.928;7.084;2024-01-07T12:30:31;7.00;70.90
37560;DHT22;23398;50.928;7.084;2024-01-07T12:32:57;6.90;70.90
37560;DHT22;23398;50.928;7.084;2024-01-07T12:35:26;6.90;70.80
37560;DHT22;23398;50.928;7.084;2024-01-07T12:37:52;6.80;70.60
37560;DHT22;23398;50.928;7.084;2024-01-07T12:40:17;6.80;70.70
37560;DHT22;23398;50.928;7.084;2024-01-07T12:42:45;6.80;70.80
37560;DHT22;23398;50.928;7.084;2024-01-07T12:45:14;6.80;70.80
37560;DHT22;23398;50.928;7.084;2024-01-07T12:47:40;6.80;70.90
37560;DHT22;23398;50.928;7.084;2024-01-07T12:50:07;6.70;70.80
37560;DHT22;23398;50.928;7.084;2024-01-07T12:52:39;6.70;70.70
37560;DHT22;23398;50.928;7.084;2024-01-07T12:55:05;6.70;70.40
37560;DHT22;23398;50.928;7.084;2024-01-07T12:57:31;6.70;70.20
37560;DHT22;23398;50.928;7.084;2024-01-07T12:59:57;6.70;70.00
37560;DHT22;23398;50.928;7.084;2024-01-07T13:02:23;6.60;69.90
37560;DHT22;23398;50.928;7.084;2024-01-07T13:04:49;6.60;70.00
37560;DHT22;23398;50.928;7.084;2024-01-07T13:07:15;6.60;70.00
37560;DHT22;23398;50.928;7.084;2024-01-07T13:09:40;6.60;70.00
37560;DHT22;23398;50.928;7.084;2024-01-07T13:12:06;6.50;69.80
37560;DHT22;23398;50.928;7.084;2024-01-07T13:14:31;6.50;69.80
37560;DHT22;23398;50.928;7.084;2024-01-07T13:16:57;6.50;69.80
37560;DHT22;23398;50.928;7.084;2024-01-07T13:19:23;6.50;69.70
37560;DHT22;23398;50.928;7.084;2024-01-07T13:21:50;6.40;69.50
37560;DHT22;23398;50.928;7.084;2024-01-07T13:24:16;6.40;69.50
37560;DHT22;23398;50.928;7.084;2024-01-07T13:26:41;6.30;69.70
37560;DHT22;23398;50.928;7.084;2024-01-07T13:29:07;6.30;69.60
37560;DHT22;23398;50.928;7.084;2024-01-07T13:31:32;6.30;69.70
37560;DHT22;23398;50.928;7.084;2024-01-07T13:33:58;6.30;69.50
37560;DHT22;23398;50.928;7.084;2024-01-07T13:36:23;6.20;69.30
37560;DHT22;23398;50.928;7.084;2024-01-07T13:38:49;6.20;69.50
37560;DHT22;23398;50.928;7.084;2024-01-07T13:41:16;6.20;69.40
37560;DHT22;23398;50.928;7.084;2024-01-07T13:43:42;6.20;69.20
37560;DHT22;23398;50.928;7.084;2024-01-07T13:46:08;6.10;69.10
37560;DHT22;23398;50.928;7.084;2024-01-07T13:48:34;6.10;68.80
37560;DHT22;23398;50.928;7.084;2024-01-07T13:51:00;6.10;68.90
37560;DHT22;23398;50.928;7.084;2024-01-07T13:53:26;6.10;68.90
37560;DHT22;23398;50.928;7.084;2024-01-07T13:55:51;6.00;68.70
37560;DHT22;23398;50.928;7.084;2024-01-07T13:58:17;6.00;68.70
37560;DHT22;23398;50.928;7.084;2024-01-07T14:00:42;6.00;68.50
37560;DHT22;23398;50.928;7.084;2024-01-07T14:03:08;5.90;68.50
37560;DHT22;23398;50.928;7.084;2024-01-07T14:05:33;6.10;68.80
37560;DHT22;23398;50.928;7.084;2024-01-07T14:07:59;5.80;68.50
37560;DHT22;23398;50.928;7.084;2024-01-07T14:10:24;5.80;68.40
37560;DHT22;23398;50.928;7.084;2024-01-07T14:12:50;5.80;68.20
37560;DHT22;23398;50.928;7.084;2024-01-07T14:15:18;5.70;68.20
37560;DHT22;23398;50.928;7.084;2024-01-07T14:17:44;5.70;68.20
37560;DHT22;23398;50.928;7.084;2024-01-07T14:20:10;5.70;68.20
37560;DHT22;23398;50.928;7.084;2024-01-07T14:22:36;5.70;68.30
37560;DHT22;23398;50.928;7.084;2024-01-07T14:25:02;5.60;68.00
37560;DHT22;23398;50.928;7.084;2024-01-07T14:27:29;5.60;67.80
37560;DHT22;23398;50.928;7.084;2024-01-07T14:29:54;5.60;67.90
37560;DHT22;23398;50.928;7.084;2024-01-07T14:32:21;5.50;67.70
37560;DHT22;23398;50.928;7.084;2024-01-07T14:34:47;5.50;67.80
37560;DHT22;23398;50.928;7.084;2024-01-07T14:37:15;5.50;67.80
37560;DHT22;23398;50.928;7.084;2024-01-07T14:39:40;5.40;67.60
37560;DHT22;23398;50.928;7.084;2024-01-07T14:42:06;5.40;67.70
37560;DHT22;23398;50.928;7.084;2024-01-07T14:44:32;5.40;67.80
37560;DHT22;23398;50.928;7.084;2024-01-07T14:46:58;5.30;67.40
37560;DHT22;23398;50.928;7.084;2024-01-07T14:49:24;5.30;67.50
37560;DHT22;23398;50.928;7.084;2024-01-07T14:51:50;5.20;67.20
37560;DHT22;23398;50.928;7.084;2024-01-07T14:54:15;5.20;67.20
37560;DHT22;23398;50.928;7.084;2024-01-07T14:56:41;5.20;67.10
37560;DHT22;23398;50.928;7.084;2024-01-07T14:59:08;5.10;67.00
37560;DHT22;23398;50.928;7.084;2024-01-07T15:01:34;5.10;67.00
37560;DHT22;23398;50.928;7.084;2024-01-07T15:03:59;5.10;66.90
37560;DHT22;23398;50.928;7.084;2024-01-07T15:06:25;5.00;66.70
37560;DHT22;23398;50.928;7.084;2024-01-07T15:08:52;4.90;66.50
37560;DHT22;23398;50.928;7.084;2024-01-07T15:11:19;4.90;66.30
37560;DHT22;23398;50.928;7.084;2024-01-07T15:13:45;5.00;66.20
37560;DHT22;23398;50.928;7.084;2024-01-07T15:16:10;4.80;66.00
37560;DHT22;23398;50.928;7.084;2024-01-07T15:18:36;4.70;66.50
37560;DHT22;23398;50.928;7.084;2024-01-07T15:21:05;4.70;65.60
37560;DHT22;23398;50.928;7.084;2024-01-07T15:23:30;4.60;65.40
37560;DHT22;23398;50.928;7.084;2024-01-07T15:25:56;4.60;65.40
37560;DHT22;23398;50.928;7.084;2024-01-07T15:28:21;4.60;65.30
37560;DHT22;23398;50.928;7.084;2024-01-07T15:30:47;4.50;65.20
37560;DHT22;23398;50.928;7.084;2024-01-07T15:33:13;4.50;65.20
37560;DHT22;23398;50.928;7.084;2024-01-07T15:35:39;4.50;65.20
37560;DHT22;23398;50.928;7.084;2024-01-07T15:38:04;4.40;65.00
37560;DHT22;23398;50.928;7.084;2024-01-07T15:40:30;4.40;65.20
37560;DHT22;23398;50.928;7.084;2024-01-07T15:42:56;4.40;65.10